Главная страница
METAR-TAF:

METAR-TAF

Аэропорты :

Амман, Иордания

широта: 31-59N, долгота: 035-59E, высота над уровнем моря: 767 м

Текущие метеонаблюдения

Эта сводка был подготовлена 1 час и 1 минут назад, в 11:00 UTC
Ветер 11 Узел от северо-западный
Температура 28°C
Влажность 35%
Давление 1018 hPa
Видимость: 6000 м
небольшая облачность на высоте 3000 фута

METAR: OJAM 211100Z 32011KT 6000 FEW030 28/11 Q1018 NOSIG

Время: 15:01 (12:01 UTC)

Прогноз

Эта сводка был подготовлена 1 час и 29 минут назад, в 10:32 UTC
Прогноз действительный с 21-го 12 UTC до 22-го 18 UTC
Ветер 12 Узел от северо-западный
Видимость: 5000 м
мгла
временами
С 21-го 12 UTC до 21-го 18 UTC
Ветер 16 Узел от северо-западный
небольшая облачность на высоте 3000 фута
временами
С 21-го 18 UTC до 22-го 20 UTC
Ветер 6 Узел от западный
Видимость: 6000 м

TAF: OJAM 211032Z 2112/2218 32012KT 5000 HZ NSC TEMPO 2112/2118 32016KT FEW030 TEMPO 2118/2220 28006KT 6000 NSC

Метеонаблюдения и прогнозы для более 4000 аэропортов (сводки METAR и TAF).

Имеющиеся станции представлены на карте желтыми и красными точками.

Чтобы увидеть название станции, наведите на нее мышь.

Затем щелкните, чтобы увидеть метеонаблюдения и метеопрогнозы.

Управление картой: чтобы увеличить масштаб, щелкните зеленые кнопки с черным крестиком; чтобы уменьшить масштаб, щелкните зеленую кнопку с тире; для просмотра соседних карт щелкайте зеленые стрелки.


METAR-TAF: